sensor_id;sensor_type;location;lat;lon;timestamp;P1;durP1;ratioP1;P2;durP2;ratioP2
35745;SDS011;21870;42.812;74.628;2023-11-21T00:01:40;3.55;;;2.60;;
35745;SDS011;21870;42.812;74.628;2023-11-21T00:04:06;3.40;;;2.83;;
35745;SDS011;21870;42.812;74.628;2023-11-21T00:06:33;3.17;;;2.72;;
35745;SDS011;21870;42.812;74.628;2023-11-21T00:08:59;3.78;;;3.38;;
35745;SDS011;21870;42.812;74.628;2023-11-21T00:11:25;4.10;;;2.80;;
35745;SDS011;21870;42.812;74.628;2023-11-21T00:13:51;5.55;;;5.03;;
35745;SDS011;21870;42.812;74.628;2023-11-21T00:16:17;8.65;;;5.00;;
35745;SDS011;21870;42.812;74.628;2023-11-21T00:18:44;4.15;;;3.85;;
35745;SDS011;21870;42.812;74.628;2023-11-21T00:21:11;4.15;;;3.10;;
35745;SDS011;21870;42.812;74.628;2023-11-21T00:23:37;3.90;;;3.08;;
35745;SDS011;21870;42.812;74.628;2023-11-21T00:26:04;3.28;;;2.97;;
35745;SDS011;21870;42.812;74.628;2023-11-21T00:28:30;6.47;;;3.25;;
35745;SDS011;21870;42.812;74.628;2023-11-21T00:30:59;4.70;;;3.25;;
35745;SDS011;21870;42.812;74.628;2023-11-21T00:33:25;6.22;;;2.78;;
35745;SDS011;21870;42.812;74.628;2023-11-21T00:35:52;5.28;;;2.90;;
35745;SDS011;21870;42.812;74.628;2023-11-21T00:38:18;5.22;;;2.83;;
35745;SDS011;21870;42.812;74.628;2023-11-21T00:40:45;3.88;;;2.45;;
35745;SDS011;21870;42.812;74.628;2023-11-21T00:43:11;4.03;;;2.05;;
35745;SDS011;21870;42.812;74.628;2023-11-21T00:45:37;2.50;;;2.28;;
35745;SDS011;21870;42.812;74.628;2023-11-21T00:48:05;5.68;;;3.75;;
35745;SDS011;21870;42.812;74.628;2023-11-21T00:50:33;4.18;;;3.70;;
35745;SDS011;21870;42.812;74.628;2023-11-21T00:52:59;6.68;;;4.70;;
35745;SDS011;21870;42.812;74.628;2023-11-21T00:55:25;7.57;;;6.80;;
35745;SDS011;21870;42.812;74.628;2023-11-21T00:57:53;21.02;;;18.92;;
35745;SDS011;21870;42.812;74.628;2023-11-21T01:00:19;9.55;;;8.23;;
35745;SDS011;21870;42.812;74.628;2023-11-21T01:02:45;8.52;;;4.38;;
35745;SDS011;21870;42.812;74.628;2023-11-21T01:05:12;7.97;;;4.57;;
35745;SDS011;21870;42.812;74.628;2023-11-21T01:07:38;9.15;;;4.22;;
35745;SDS011;21870;42.812;74.628;2023-11-21T01:10:04;8.10;;;4.82;;
35745;SDS011;21870;42.812;74.628;2023-11-21T01:12:34;12.48;;;5.15;;
35745;SDS011;21870;42.812;74.628;2023-11-21T01:15:01;8.98;;;5.10;;
35745;SDS011;21870;42.812;74.628;2023-11-21T01:17:27;5.03;;;4.25;;
35745;SDS011;21870;42.812;74.628;2023-11-21T01:19:53;6.22;;;4.50;;
35745;SDS011;21870;42.812;74.628;2023-11-21T01:22:19;9.65;;;5.90;;
35745;SDS011;21870;42.812;74.628;2023-11-21T01:24:51;13.48;;;5.65;;
35745;SDS011;21870;42.812;74.628;2023-11-21T01:27:19;8.73;;;5.18;;
35745;SDS011;21870;42.812;74.628;2023-11-21T01:29:45;7.60;;;4.97;;
35745;SDS011;21870;42.812;74.628;2023-11-21T01:32:11;6.03;;;4.68;;
35745;SDS011;21870;42.812;74.628;2023-11-21T01:34:38;9.85;;;4.93;;
35745;SDS011;21870;42.812;74.628;2023-11-21T01:37:04;8.52;;;4.72;;
35745;SDS011;21870;42.812;74.628;2023-11-21T01:39:30;8.77;;;4.88;;
35745;SDS011;21870;42.812;74.628;2023-11-21T01:41:57;12.48;;;5.03;;
35745;SDS011;21870;42.812;74.628;2023-11-21T01:44:24;6.05;;;4.15;;
35745;SDS011;21870;42.812;74.628;2023-11-21T01:46:50;6.63;;;4.30;;
35745;SDS011;21870;42.812;74.628;2023-11-21T01:49:17;5.68;;;4.00;;
35745;SDS011;21870;42.812;74.628;2023-11-21T01:51:47;7.65;;;4.22;;
35745;SDS011;21870;42.812;74.628;2023-11-21T01:54:17;9.70;;;4.72;;
35745;SDS011;21870;42.812;74.628;2023-11-21T01:56:46;11.20;;;4.40;;
35745;SDS011;21870;42.812;74.628;2023-11-21T01:59:14;8.43;;;3.70;;
35745;SDS011;21870;42.812;74.628;2023-11-21T02:01:46;6.68;;;4.15;;
35745;SDS011;21870;42.812;74.628;2023-11-21T02:04:12;7.88;;;3.03;;
35745;SDS011;21870;42.812;74.628;2023-11-21T02:06:39;6.60;;;2.38;;
35745;SDS011;21870;42.812;74.628;2023-11-21T02:09:05;4.40;;;2.80;;
35745;SDS011;21870;42.812;74.628;2023-11-21T02:11:31;2.65;;;2.20;;
35745;SDS011;21870;42.812;74.628;2023-11-21T02:14:00;7.45;;;2.33;;
35745;SDS011;21870;42.812;74.628;2023-11-21T02:16:26;3.70;;;2.33;;
35745;SDS011;21870;42.812;74.628;2023-11-21T02:18:55;6.35;;;2.30;;
35745;SDS011;21870;42.812;74.628;2023-11-21T02:21:22;2.65;;;2.42;;
35745;SDS011;21870;42.812;74.628;2023-11-21T02:23:50;4.25;;;3.38;;
35745;SDS011;21870;42.812;74.628;2023-11-21T02:26:16;8.25;;;3.50;;
35745;SDS011;21870;42.812;74.628;2023-11-21T02:28:42;7.68;;;4.00;;
35745;SDS011;21870;42.812;74.628;2023-11-21T02:31:08;11.63;;;4.30;;
35745;SDS011;21870;42.812;74.628;2023-11-21T02:33:34;9.18;;;3.38;;
35745;SDS011;21870;42.812;74.628;2023-11-21T02:36:01;9.88;;;3.65;;
35745;SDS011;21870;42.812;74.628;2023-11-21T02:38:28;9.73;;;3.67;;
35745;SDS011;21870;42.812;74.628;2023-11-21T02:40:55;9.32;;;3.40;;
35745;SDS011;21870;42.812;74.628;2023-11-21T02:43:23;16.42;;;4.20;;
35745;SDS011;21870;42.812;74.628;2023-11-21T02:45:49;15.30;;;4.10;;
35745;SDS011;21870;42.812;74.628;2023-11-21T02:48:15;19.60;;;3.92;;
35745;SDS011;21870;42.812;74.628;2023-11-21T02:50:41;7.00;;;3.10;;
35745;SDS011;21870;42.812;74.628;2023-11-21T02:53:08;7.22;;;3.33;;
35745;SDS011;21870;42.812;74.628;2023-11-21T02:55:36;21.38;;;6.60;;
35745;SDS011;21870;42.812;74.628;2023-11-21T02:58:02;22.02;;;8.13;;
35745;SDS011;21870;42.812;74.628;2023-11-21T03:00:31;16.90;;;7.15;;
35745;SDS011;21870;42.812;74.628;2023-11-21T03:02:57;17.95;;;7.93;;
35745;SDS011;21870;42.812;74.628;2023-11-21T03:05:23;18.65;;;7.63;;
35745;SDS011;21870;42.812;74.628;2023-11-21T03:07:49;25.73;;;9.32;;
35745;SDS011;21870;42.812;74.628;2023-11-21T03:10:15;16.90;;;7.97;;
35745;SDS011;21870;42.812;74.628;2023-11-21T03:12:41;16.42;;;7.93;;
35745;SDS011;21870;42.812;74.628;2023-11-21T03:15:07;15.02;;;6.30;;
35745;SDS011;21870;42.812;74.628;2023-11-21T03:17:34;11.65;;;6.20;;
35745;SDS011;21870;42.812;74.628;2023-11-21T03:20:00;8.20;;;5.00;;
35745;SDS011;21870;42.812;74.628;2023-11-21T03:22:26;12.07;;;5.15;;
35745;SDS011;21870;42.812;74.628;2023-11-21T03:24:52;7.32;;;4.95;;
35745;SDS011;21870;42.812;74.628;2023-11-21T03:27:18;5.53;;;4.82;;
35745;SDS011;21870;42.812;74.628;2023-11-21T03:29:44;8.88;;;3.85;;
35745;SDS011;21870;42.812;74.628;2023-11-21T03:32:12;7.25;;;3.22;;
35745;SDS011;21870;42.812;74.628;2023-11-21T03:34:52;6.32;;;3.15;;
35745;SDS011;21870;42.812;74.628;2023-11-21T03:37:20;13.07;;;3.83;;
35745;SDS011;21870;42.812;74.628;2023-11-21T03:39:47;5.65;;;3.70;;
35745;SDS011;21870;42.812;74.628;2023-11-21T03:42:13;8.38;;;3.72;;
35745;SDS011;21870;42.812;74.628;2023-11-21T03:44:39;14.20;;;4.22;;
35745;SDS011;21870;42.812;74.628;2023-11-21T03:47:05;10.73;;;3.70;;
35745;SDS011;21870;42.812;74.628;2023-11-21T03:49:31;6.78;;;4.18;;
35745;SDS011;21870;42.812;74.628;2023-11-21T03:51:57;9.75;;;4.38;;
35745;SDS011;21870;42.812;74.628;2023-11-21T03:54:23;14.27;;;11.70;;
35745;SDS011;21870;42.812;74.628;2023-11-21T03:56:49;20.27;;;12.82;;
35745;SDS011;21870;42.812;74.628;2023-11-21T03:59:21;21.25;;;13.98;;
35745;SDS011;21870;42.812;74.628;2023-11-21T04:01:49;9.00;;;8.27;;
35745;SDS011;21870;42.812;74.628;2023-11-21T04:04:16;8.15;;;6.55;;
35745;SDS011;21870;42.812;74.628;2023-11-21T04:06:42;8.80;;;6.07;;
35745;SDS011;21870;42.812;74.628;2023-11-21T04:09:08;9.15;;;5.38;;
35745;SDS011;21870;42.812;74.628;2023-11-21T04:11:34;9.77;;;5.03;;
35745;SDS011;21870;42.812;74.628;2023-11-21T04:14:00;11.45;;;4.53;;
35745;SDS011;21870;42.812;74.628;2023-11-21T04:16:26;13.02;;;4.47;;
35745;SDS011;21870;42.812;74.628;2023-11-21T04:18:52;5.70;;;3.55;;
35745;SDS011;21870;42.812;74.628;2023-11-21T04:21:18;15.18;;;4.22;;
35745;SDS011;21870;42.812;74.628;2023-11-21T04:23:44;9.10;;;3.60;;
35745;SDS011;21870;42.812;74.628;2023-11-21T04:26:11;7.97;;;3.38;;
35745;SDS011;21870;42.812;74.628;2023-11-21T04:28:37;10.05;;;4.13;;
35745;SDS011;21870;42.812;74.628;2023-11-21T04:31:04;11.52;;;4.35;;
35745;SDS011;21870;42.812;74.628;2023-11-21T04:33:30;11.73;;;4.63;;
35745;SDS011;21870;42.812;74.628;2023-11-21T04:35:56;11.63;;;4.07;;
35745;SDS011;21870;42.812;74.628;2023-11-21T04:38:22;8.20;;;3.50;;
35745;SDS011;21870;42.812;74.628;2023-11-21T04:40:48;3.58;;;2.80;;
35745;SDS011;21870;42.812;74.628;2023-11-21T04:43:14;4.93;;;3.33;;
35745;SDS011;21870;42.812;74.628;2023-11-21T04:45:40;6.47;;;2.55;;
35745;SDS011;21870;42.812;74.628;2023-11-21T04:48:07;5.15;;;2.53;;
35745;SDS011;21870;42.812;74.628;2023-11-21T04:50:34;7.88;;;2.47;;
35745;SDS011;21870;42.812;74.628;2023-11-21T04:53:00;12.27;;;3.80;;
35745;SDS011;21870;42.812;74.628;2023-11-21T04:55:26;6.55;;;2.92;;
35745;SDS011;21870;42.812;74.628;2023-11-21T04:57:53;5.10;;;3.78;;
35745;SDS011;21870;42.812;74.628;2023-11-21T05:00:19;5.63;;;2.85;;
35745;SDS011;21870;42.812;74.628;2023-11-21T05:02:46;7.05;;;2.60;;
35745;SDS011;21870;42.812;74.628;2023-11-21T05:05:13;2.55;;;1.88;;
35745;SDS011;21870;42.812;74.628;2023-11-21T05:07:40;2.65;;;2.10;;
35745;SDS011;21870;42.812;74.628;2023-11-21T05:10:07;4.95;;;1.85;;
35745;SDS011;21870;42.812;74.628;2023-11-21T05:12:36;3.92;;;2.13;;
35745;SDS011;21870;42.812;74.628;2023-11-21T05:15:06;4.07;;;1.80;;
35745;SDS011;21870;42.812;74.628;2023-11-21T05:17:35;1.92;;;1.50;;
35745;SDS011;21870;42.812;74.628;2023-11-21T05:20:02;6.50;;;2.15;;
35745;SDS011;21870;42.812;74.628;2023-11-21T05:22:29;11.55;;;3.33;;
35745;SDS011;21870;42.812;74.628;2023-11-21T05:24:55;8.30;;;4.30;;
35745;SDS011;21870;42.812;74.628;2023-11-21T05:27:22;10.82;;;5.55;;
35745;SDS011;21870;42.812;74.628;2023-11-21T05:29:48;14.55;;;5.55;;
35745;SDS011;21870;42.812;74.628;2023-11-21T05:32:14;11.85;;;7.07;;
35745;SDS011;21870;42.812;74.628;2023-11-21T05:34:40;8.35;;;3.00;;
35745;SDS011;21870;42.812;74.628;2023-11-21T05:37:07;4.20;;;2.60;;
35745;SDS011;21870;42.812;74.628;2023-11-21T05:39:33;6.65;;;2.55;;
35745;SDS011;21870;42.812;74.628;2023-11-21T05:41:59;4.30;;;2.50;;
35745;SDS011;21870;42.812;74.628;2023-11-21T05:44:25;4.90;;;2.60;;
35745;SDS011;21870;42.812;74.628;2023-11-21T05:46:51;4.15;;;1.73;;
35745;SDS011;21870;42.812;74.628;2023-11-21T05:49:17;2.75;;;1.90;;
35745;SDS011;21870;42.812;74.628;2023-11-21T05:51:47;3.50;;;1.73;;
35745;SDS011;21870;42.812;74.628;2023-11-21T05:54:13;4.10;;;2.03;;
35745;SDS011;21870;42.812;74.628;2023-11-21T05:56:39;9.13;;;1.95;;
35745;SDS011;21870;42.812;74.628;2023-11-21T05:59:05;4.38;;;2.10;;
35745;SDS011;21870;42.812;74.628;2023-11-21T06:01:31;6.65;;;2.30;;
35745;SDS011;21870;42.812;74.628;2023-11-21T06:03:57;4.70;;;2.45;;
35745;SDS011;21870;42.812;74.628;2023-11-21T06:06:24;13.00;;;2.92;;
35745;SDS011;21870;42.812;74.628;2023-11-21T06:08:50;5.85;;;2.17;;
35745;SDS011;21870;42.812;74.628;2023-11-21T06:11:17;9.25;;;2.85;;
35745;SDS011;21870;42.812;74.628;2023-11-21T06:13:43;9.18;;;2.22;;
35745;SDS011;21870;42.812;74.628;2023-11-21T06:16:10;9.68;;;2.45;;
35745;SDS011;21870;42.812;74.628;2023-11-21T06:18:38;2.53;;;1.60;;
35745;SDS011;21870;42.812;74.628;2023-11-21T06:21:05;6.72;;;2.00;;
35745;SDS011;21870;42.812;74.628;2023-11-21T06:23:34;9.05;;;2.88;;
35745;SDS011;21870;42.812;74.628;2023-11-21T06:26:00;7.53;;;2.75;;
35745;SDS011;21870;42.812;74.628;2023-11-21T06:28:26;4.80;;;2.28;;
35745;SDS011;21870;42.812;74.628;2023-11-21T06:30:53;7.70;;;2.17;;
35745;SDS011;21870;42.812;74.628;2023-11-21T06:33:19;5.22;;;2.10;;
35745;SDS011;21870;42.812;74.628;2023-11-21T06:35:47;9.35;;;2.20;;
35745;SDS011;21870;42.812;74.628;2023-11-21T06:38:13;6.88;;;2.50;;
35745;SDS011;21870;42.812;74.628;2023-11-21T06:40:39;9.98;;;4.40;;
35745;SDS011;21870;42.812;74.628;2023-11-21T06:43:06;11.32;;;3.30;;
35745;SDS011;21870;42.812;74.628;2023-11-21T06:45:33;6.88;;;2.65;;
35745;SDS011;21870;42.812;74.628;2023-11-21T06:48:02;5.90;;;2.20;;
35745;SDS011;21870;42.812;74.628;2023-11-21T06:50:28;6.45;;;2.30;;
35745;SDS011;21870;42.812;74.628;2023-11-21T06:52:54;7.97;;;2.53;;
35745;SDS011;21870;42.812;74.628;2023-11-21T06:55:20;5.85;;;3.03;;
35745;SDS011;21870;42.812;74.628;2023-11-21T06:57:46;12.02;;;2.75;;
35745;SDS011;21870;42.812;74.628;2023-11-21T07:00:13;12.73;;;2.60;;
35745;SDS011;21870;42.812;74.628;2023-11-21T07:02:45;8.18;;;2.17;;
35745;SDS011;21870;42.812;74.628;2023-11-21T07:05:11;7.50;;;2.20;;
35745;SDS011;21870;42.812;74.628;2023-11-21T07:07:39;8.23;;;2.88;;
35745;SDS011;21870;42.812;74.628;2023-11-21T07:10:05;7.30;;;2.00;;
35745;SDS011;21870;42.812;74.628;2023-11-21T07:12:33;8.15;;;2.40;;
35745;SDS011;21870;42.812;74.628;2023-11-21T07:15:00;6.00;;;2.22;;
35745;SDS011;21870;42.812;74.628;2023-11-21T07:17:26;4.00;;;1.98;;
35745;SDS011;21870;42.812;74.628;2023-11-21T07:19:52;2.25;;;2.00;;
35745;SDS011;21870;42.812;74.628;2023-11-21T07:22:18;9.15;;;2.67;;
35745;SDS011;21870;42.812;74.628;2023-11-21T07:24:50;9.35;;;2.50;;
35745;SDS011;21870;42.812;74.628;2023-11-21T07:27:16;9.88;;;1.83;;
35745;SDS011;21870;42.812;74.628;2023-11-21T07:29:43;5.32;;;1.90;;
35745;SDS011;21870;42.812;74.628;2023-11-21T07:32:09;6.25;;;1.83;;
35745;SDS011;21870;42.812;74.628;2023-11-21T07:34:35;5.20;;;2.20;;
35745;SDS011;21870;42.812;74.628;2023-11-21T07:37:02;2.45;;;1.45;;
35745;SDS011;21870;42.812;74.628;2023-11-21T07:39:28;4.10;;;1.85;;
35745;SDS011;21870;42.812;74.628;2023-11-21T07:41:57;4.25;;;1.98;;
35745;SDS011;21870;42.812;74.628;2023-11-21T07:44:23;9.70;;;2.33;;
35745;SDS011;21870;42.812;74.628;2023-11-21T07:46:49;7.75;;;2.40;;
35745;SDS011;21870;42.812;74.628;2023-11-21T07:49:15;2.17;;;1.90;;
35745;SDS011;21870;42.812;74.628;2023-11-21T07:51:42;8.50;;;5.45;;
35745;SDS011;21870;42.812;74.628;2023-11-21T07:54:09;18.85;;;7.03;;
35745;SDS011;21870;42.812;74.628;2023-11-21T07:56:35;17.75;;;7.60;;
35745;SDS011;21870;42.812;74.628;2023-11-21T07:59:01;25.80;;;8.35;;
35745;SDS011;21870;42.812;74.628;2023-11-21T08:01:27;19.15;;;7.60;;
35745;SDS011;21870;42.812;74.628;2023-11-21T08:03:54;15.98;;;7.20;;
35745;SDS011;21870;42.812;74.628;2023-11-21T08:06:23;18.20;;;7.32;;
35745;SDS011;21870;42.812;74.628;2023-11-21T08:08:50;27.35;;;8.15;;
35745;SDS011;21870;42.812;74.628;2023-11-21T08:11:16;22.23;;;7.95;;
35745;SDS011;21870;42.812;74.628;2023-11-21T08:13:43;19.25;;;7.20;;
35745;SDS011;21870;42.812;74.628;2023-11-21T08:16:09;24.77;;;9.25;;
35745;SDS011;21870;42.812;74.628;2023-11-21T08:18:35;18.65;;;7.68;;
35745;SDS011;21870;42.812;74.628;2023-11-21T08:21:01;15.95;;;7.30;;
35745;SDS011;21870;42.812;74.628;2023-11-21T08:23:28;21.73;;;9.55;;
35745;SDS011;21870;42.812;74.628;2023-11-21T08:25:54;20.75;;;9.65;;
35745;SDS011;21870;42.812;74.628;2023-11-21T08:28:21;29.33;;;10.68;;
35745;SDS011;21870;42.812;74.628;2023-11-21T08:30:51;29.10;;;10.23;;
35745;SDS011;21870;42.812;74.628;2023-11-21T08:33:19;27.65;;;10.13;;
35745;SDS011;21870;42.812;74.628;2023-11-21T08:35:45;24.73;;;10.38;;
35745;SDS011;21870;42.812;74.628;2023-11-21T08:38:11;28.65;;;11.07;;
35745;SDS011;21870;42.812;74.628;2023-11-21T08:40:38;28.42;;;11.13;;
35745;SDS011;21870;42.812;74.628;2023-11-21T08:43:04;28.80;;;9.93;;
35745;SDS011;21870;42.812;74.628;2023-11-21T08:45:30;32.97;;;10.10;;
35745;SDS011;21870;42.812;74.628;2023-11-21T08:47:59;30.00;;;10.82;;
35745;SDS011;21870;42.812;74.628;2023-11-21T08:50:25;16.33;;;9.13;;
35745;SDS011;21870;42.812;74.628;2023-11-21T08:52:52;25.77;;;12.52;;
35745;SDS011;21870;42.812;74.628;2023-11-21T08:55:18;26.15;;;14.13;;
35745;SDS011;21870;42.812;74.628;2023-11-21T08:57:45;34.30;;;13.85;;
35745;SDS011;21870;42.812;74.628;2023-11-21T09:00:14;31.38;;;12.80;;
35745;SDS011;21870;42.812;74.628;2023-11-21T09:02:42;27.70;;;13.27;;
35745;SDS011;21870;42.812;74.628;2023-11-21T09:05:09;31.60;;;13.02;;
35745;SDS011;21870;42.812;74.628;2023-11-21T09:07:36;38.08;;;13.73;;
35745;SDS011;21870;42.812;74.628;2023-11-21T09:10:03;25.05;;;11.55;;
35745;SDS011;21870;42.812;74.628;2023-11-21T09:12:36;18.20;;;9.88;;
35745;SDS011;21870;42.812;74.628;2023-11-21T09:15:03;17.02;;;10.00;;
35745;SDS011;21870;42.812;74.628;2023-11-21T09:17:30;21.52;;;9.82;;
35745;SDS011;21870;42.812;74.628;2023-11-21T09:19:59;27.20;;;10.32;;
35745;SDS011;21870;42.812;74.628;2023-11-21T09:22:25;21.17;;;9.82;;
35745;SDS011;21870;42.812;74.628;2023-11-21T09:24:55;23.63;;;10.10;;
35745;SDS011;21870;42.812;74.628;2023-11-21T09:27:23;21.35;;;11.20;;
35745;SDS011;21870;42.812;74.628;2023-11-21T09:29:50;24.67;;;10.02;;
35745;SDS011;21870;42.812;74.628;2023-11-21T09:32:18;23.23;;;12.15;;
35745;SDS011;21870;42.812;74.628;2023-11-21T09:34:44;29.48;;;11.85;;
35745;SDS011;21870;42.812;74.628;2023-11-21T09:37:10;21.58;;;11.23;;
35745;SDS011;21870;42.812;74.628;2023-11-21T09:39:36;19.05;;;10.07;;
35745;SDS011;21870;42.812;74.628;2023-11-21T09:42:05;17.52;;;10.45;;
35745;SDS011;21870;42.812;74.628;2023-11-21T09:47:26;31.75;;;11.10;;
35745;SDS011;21870;42.812;74.628;2023-11-21T09:49:54;27.52;;;11.18;;
35745;SDS011;21870;42.812;74.628;2023-11-21T09:52:25;25.15;;;11.35;;
35745;SDS011;21870;42.812;74.628;2023-11-21T09:54:52;29.33;;;12.45;;
35745;SDS011;21870;42.812;74.628;2023-11-21T09:57:23;19.35;;;10.90;;
35745;SDS011;21870;42.812;74.628;2023-11-21T09:59:53;17.00;;;10.73;;
35745;SDS011;21870;42.812;74.628;2023-11-21T10:02:29;24.48;;;10.90;;
35745;SDS011;21870;42.812;74.628;2023-11-21T10:04:56;20.75;;;10.88;;
35745;SDS011;21870;42.812;74.628;2023-11-21T10:07:23;25.55;;;11.63;;
35745;SDS011;21870;42.812;74.628;2023-11-21T10:09:49;33.42;;;12.98;;
35745;SDS011;21870;42.812;74.628;2023-11-21T10:12:16;29.73;;;12.88;;
35745;SDS011;21870;42.812;74.628;2023-11-21T10:14:46;25.67;;;12.10;;
35745;SDS011;21870;42.812;74.628;2023-11-21T10:17:14;17.98;;;10.80;;
35745;SDS011;21870;42.812;74.628;2023-11-21T10:19:43;19.17;;;11.23;;
35745;SDS011;21870;42.812;74.628;2023-11-21T10:22:15;25.38;;;12.43;;
35745;SDS011;21870;42.812;74.628;2023-11-21T10:24:42;43.30;;;15.57;;
35745;SDS011;21870;42.812;74.628;2023-11-21T10:27:08;21.48;;;14.00;;
35745;SDS011;21870;42.812;74.628;2023-11-21T10:29:35;22.98;;;12.98;;
35745;SDS011;21870;42.812;74.628;2023-11-21T10:32:04;29.90;;;12.98;;
35745;SDS011;21870;42.812;74.628;2023-11-21T10:34:30;27.42;;;12.85;;
35745;SDS011;21870;42.812;74.628;2023-11-21T10:36:57;28.17;;;12.82;;
35745;SDS011;21870;42.812;74.628;2023-11-21T10:39:23;29.88;;;12.57;;
35745;SDS011;21870;42.812;74.628;2023-11-21T10:41:55;23.50;;;11.63;;
35745;SDS011;21870;42.812;74.628;2023-11-21T10:44:22;21.23;;;12.35;;
35745;SDS011;21870;42.812;74.628;2023-11-21T10:46:55;29.02;;;12.25;;
35745;SDS011;21870;42.812;74.628;2023-11-21T10:49:22;20.60;;;11.10;;
35745;SDS011;21870;42.812;74.628;2023-11-21T10:51:50;28.30;;;12.85;;
35745;SDS011;21870;42.812;74.628;2023-11-21T10:54:19;34.50;;;14.80;;
35745;SDS011;21870;42.812;74.628;2023-11-21T10:56:49;26.17;;;13.98;;
35745;SDS011;21870;42.812;74.628;2023-11-21T10:59:22;29.08;;;14.82;;
35745;SDS011;21870;42.812;74.628;2023-11-21T11:01:50;45.25;;;16.13;;
35745;SDS011;21870;42.812;74.628;2023-11-21T11:04:18;29.30;;;14.52;;
35745;SDS011;21870;42.812;74.628;2023-11-21T11:06:48;44.15;;;17.27;;
35745;SDS011;21870;42.812;74.628;2023-11-21T11:09:18;28.30;;;15.13;;
35745;SDS011;21870;42.812;74.628;2023-11-21T11:11:46;27.40;;;16.52;;
35745;SDS011;21870;42.812;74.628;2023-11-21T11:14:12;26.73;;;15.35;;
35745;SDS011;21870;42.812;74.628;2023-11-21T11:16:40;30.85;;;15.98;;
35745;SDS011;21870;42.812;74.628;2023-11-21T11:19:09;35.60;;;15.82;;
35745;SDS011;21870;42.812;74.628;2023-11-21T11:38:31;64.70;;;20.05;;
35745;SDS011;21870;42.812;74.628;2023-11-21T11:41:01;56.53;;;20.50;;
35745;SDS011;21870;42.812;74.628;2023-11-21T11:43:29;25.80;;;17.00;;
35745;SDS011;21870;42.812;74.628;2023-11-21T11:45:58;40.25;;;17.05;;
35745;SDS011;21870;42.812;74.628;2023-11-21T11:48:25;48.97;;;18.90;;
35745;SDS011;21870;42.812;74.628;2023-11-21T11:51:01;37.15;;;17.10;;
35745;SDS011;21870;42.812;74.628;2023-11-21T11:53:35;30.70;;;17.23;;
35745;SDS011;21870;42.812;74.628;2023-11-21T11:58:51;25.90;;;16.77;;
35745;SDS011;21870;42.812;74.628;2023-11-21T12:01:19;32.35;;;17.75;;
35745;SDS011;21870;42.812;74.628;2023-11-21T12:04:30;26.17;;;16.88;;
35745;SDS011;21870;42.812;74.628;2023-11-21T12:06:50;24.95;;;17.25;;
35745;SDS011;21870;42.812;74.628;2023-11-21T12:09:21;23.92;;;17.98;;
35745;SDS011;21870;42.812;74.628;2023-11-21T12:11:49;41.95;;;19.17;;
35745;SDS011;21870;42.812;74.628;2023-11-21T12:14:16;34.97;;;19.90;;
35745;SDS011;21870;42.812;74.628;2023-11-21T12:16:43;34.92;;;21.85;;
35745;SDS011;21870;42.812;74.628;2023-11-21T12:19:12;41.95;;;23.65;;
35745;SDS011;21870;42.812;74.628;2023-11-21T12:21:38;44.45;;;24.85;;
35745;SDS011;21870;42.812;74.628;2023-11-21T12:24:14;32.90;;;23.77;;
35745;SDS011;21870;42.812;74.628;2023-11-21T12:26:41;28.85;;;24.27;;
35745;SDS011;21870;42.812;74.628;2023-11-21T12:29:08;30.95;;;23.50;;
35745;SDS011;21870;42.812;74.628;2023-11-21T12:31:34;42.13;;;28.60;;
35745;SDS011;21870;42.812;74.628;2023-11-21T12:34:01;45.60;;;28.67;;
35745;SDS011;21870;42.812;74.628;2023-11-21T12:36:27;41.25;;;31.30;;
35745;SDS011;21870;42.812;74.628;2023-11-21T12:38:55;37.75;;;33.17;;
35745;SDS011;21870;42.812;74.628;2023-11-21T12:41:21;40.38;;;36.00;;
35745;SDS011;21870;42.812;74.628;2023-11-21T12:43:47;41.72;;;36.00;;
35745;SDS011;21870;42.812;74.628;2023-11-21T12:46:14;41.63;;;35.47;;
35745;SDS011;21870;42.812;74.628;2023-11-21T12:48:42;44.15;;;36.97;;
35745;SDS011;21870;42.812;74.628;2023-11-21T12:51:10;46.90;;;37.05;;
35745;SDS011;21870;42.812;74.628;2023-11-21T12:53:37;49.13;;;39.25;;
35745;SDS011;21870;42.812;74.628;2023-11-21T12:56:10;47.15;;;39.25;;
35745;SDS011;21870;42.812;74.628;2023-11-21T12:58:37;40.95;;;35.10;;
35745;SDS011;21870;42.812;74.628;2023-11-21T13:01:05;42.33;;;34.70;;
35745;SDS011;21870;42.812;74.628;2023-11-21T13:03:37;47.15;;;39.17;;
35745;SDS011;21870;42.812;74.628;2023-11-21T13:06:05;43.97;;;36.80;;
35745;SDS011;21870;42.812;74.628;2023-11-21T13:08:33;45.15;;;35.03;;
35745;SDS011;21870;42.812;74.628;2023-11-21T13:10:59;34.85;;;31.08;;
35745;SDS011;21870;42.812;74.628;2023-11-21T13:13:27;27.40;;;22.23;;
35745;SDS011;21870;42.812;74.628;2023-11-21T13:15:55;24.55;;;19.38;;
35745;SDS011;21870;42.812;74.628;2023-11-21T13:18:26;27.65;;;17.92;;
35745;SDS011;21870;42.812;74.628;2023-11-21T13:20:54;24.45;;;17.55;;
35745;SDS011;21870;42.812;74.628;2023-11-21T13:23:23;25.02;;;19.98;;
35745;SDS011;21870;42.812;74.628;2023-11-21T13:25:50;24.05;;;20.67;;
35745;SDS011;21870;42.812;74.628;2023-11-21T13:28:17;26.23;;;20.98;;
35745;SDS011;21870;42.812;74.628;2023-11-21T13:30:46;29.35;;;22.33;;
35745;SDS011;21870;42.812;74.628;2023-11-21T13:33:13;27.25;;;23.42;;
35745;SDS011;21870;42.812;74.628;2023-11-21T13:35:52;34.50;;;26.70;;
35745;SDS011;21870;42.812;74.628;2023-11-21T13:38:18;31.25;;;25.33;;
35745;SDS011;21870;42.812;74.628;2023-11-21T13:40:48;34.38;;;27.40;;
35745;SDS011;21870;42.812;74.628;2023-11-21T13:43:18;32.92;;;28.48;;
35745;SDS011;21870;42.812;74.628;2023-11-21T13:45:47;32.72;;;27.58;;
35745;SDS011;21870;42.812;74.628;2023-11-21T13:48:37;32.67;;;27.00;;
35745;SDS011;21870;42.812;74.628;2023-11-21T13:51:07;34.50;;;27.63;;
35745;SDS011;21870;42.812;74.628;2023-11-21T13:53:42;28.83;;;24.73;;
35745;SDS011;21870;42.812;74.628;2023-11-21T13:56:14;30.17;;;23.63;;
35745;SDS011;21870;42.812;74.628;2023-11-21T13:58:44;27.17;;;23.60;;
35745;SDS011;21870;42.812;74.628;2023-11-21T14:01:17;25.15;;;22.52;;
35745;SDS011;21870;42.812;74.628;2023-11-21T14:03:56;22.80;;;18.92;;
35745;SDS011;21870;42.812;74.628;2023-11-21T14:06:33;23.88;;;21.38;;
35745;SDS011;21870;42.812;74.628;2023-11-21T14:09:05;22.98;;;20.60;;
35745;SDS011;21870;42.812;74.628;2023-11-21T14:11:33;25.13;;;19.23;;
35745;SDS011;21870;42.812;74.628;2023-11-21T14:13:59;21.67;;;19.05;;
35745;SDS011;21870;42.812;74.628;2023-11-21T14:16:25;42.97;;;28.38;;
35745;SDS011;21870;42.812;74.628;2023-11-21T14:18:51;39.30;;;30.17;;
35745;SDS011;21870;42.812;74.628;2023-11-21T14:21:23;47.50;;;30.38;;
35745;SDS011;21870;42.812;74.628;2023-11-21T14:23:49;39.25;;;32.15;;
35745;SDS011;21870;42.812;74.628;2023-11-21T14:26:16;53.78;;;32.85;;
35745;SDS011;21870;42.812;74.628;2023-11-21T14:28:43;42.22;;;30.88;;
35745;SDS011;21870;42.812;74.628;2023-11-21T14:31:09;43.03;;;32.53;;
35745;SDS011;21870;42.812;74.628;2023-11-21T14:33:39;79.43;;;56.72;;
35745;SDS011;21870;42.812;74.628;2023-11-21T14:36:06;52.75;;;35.13;;
35745;SDS011;21870;42.812;74.628;2023-11-21T14:38:35;50.75;;;29.00;;
35745;SDS011;21870;42.812;74.628;2023-11-21T14:41:05;41.40;;;25.95;;
35745;SDS011;21870;42.812;74.628;2023-11-21T14:43:36;41.75;;;23.67;;
35745;SDS011;21870;42.812;74.628;2023-11-21T14:46:04;40.75;;;25.33;;